createdAt,value
2018-08-04T00:00:12.752Z,6.03
2018-08-04T00:02:40.514Z,5.87
2018-08-04T00:05:30.109Z,6.55
2018-08-04T00:07:57.933Z,5.40
2018-08-04T00:10:25.743Z,6.10
2018-08-04T00:12:53.561Z,7.08
2018-08-04T00:15:21.350Z,6.08
2018-08-04T00:17:49.443Z,6.60
2018-08-04T00:20:17.395Z,6.62
2018-08-04T00:22:45.307Z,6.90
2018-08-04T00:25:14.096Z,6.12
2018-08-04T00:27:41.819Z,6.37
2018-08-04T00:30:11.429Z,7.62
2018-08-04T00:32:47.209Z,6.17
2018-08-04T00:35:35.488Z,8.83
2018-08-04T00:38:04.360Z,7.15
2018-08-04T00:40:32.150Z,6.45
2018-08-04T00:42:59.960Z,6.97
2018-08-04T00:45:27.714Z,7.65
2018-08-04T00:47:55.513Z,8.55
2018-08-04T00:50:23.295Z,7.80
2018-08-04T00:52:51.136Z,8.18
2018-08-04T00:55:18.851Z,9.90
2018-08-04T00:57:48.588Z,10.30
2018-08-04T01:03:12.829Z,13.18
2018-08-04T01:05:40.588Z,12.78
2018-08-04T01:08:08.404Z,12.50
2018-08-04T01:10:36.179Z,12.65
2018-08-04T01:13:03.924Z,13.45
2018-08-04T01:15:31.701Z,13.10
2018-08-04T01:17:59.513Z,12.28
2018-08-04T01:20:29.249Z,13.72
2018-08-04T01:22:57.026Z,13.60
2018-08-04T01:25:24.792Z,13.15
2018-08-04T01:27:52.585Z,14.43
2018-08-04T01:30:20.382Z,12.90
2018-08-04T01:32:48.153Z,13.50
2018-08-04T01:35:15.953Z,14.07
2018-08-04T01:37:43.755Z,13.75
2018-08-04T01:40:37.612Z,14.45
2018-08-04T01:43:05.422Z,14.65
2018-08-04T01:45:33.192Z,19.33
2018-08-04T01:48:00.991Z,18.37
2018-08-04T01:50:28.813Z,16.60
2018-08-04T01:52:56.551Z,16.52
2018-08-04T01:55:24.288Z,16.57
2018-08-04T01:57:52.026Z,15.80
2018-08-04T02:00:19.808Z,18.45
2018-08-04T02:02:47.565Z,18.52
2018-08-04T02:05:15.330Z,20.15
2018-08-04T02:07:43.092Z,19.17
2018-08-04T02:10:10.828Z,19.40
2018-08-04T02:12:38.567Z,19.30
2018-08-04T02:15:06.378Z,19.55
2018-08-04T02:17:34.127Z,19.12
2018-08-04T02:20:01.857Z,19.82
2018-08-04T02:22:29.606Z,20.97
2018-08-04T02:24:57.332Z,22.05
2018-08-04T02:27:28.496Z,21.85
2018-08-04T02:29:56.409Z,21.23
2018-08-04T02:32:24.221Z,20.50
2018-08-04T02:34:52.026Z,20.77
2018-08-04T02:37:19.826Z,23.87
2018-08-04T02:39:47.618Z,24.72
2018-08-04T02:42:15.376Z,28.45
2018-08-04T02:44:43.099Z,29.15
2018-08-04T02:47:10.937Z,26.97
2018-08-04T02:49:39.757Z,26.80
2018-08-04T02:54:43.776Z,27.70
2018-08-04T02:57:11.542Z,31.65
2018-08-04T02:59:39.397Z,33.13
2018-08-04T03:02:07.286Z,34.25
2018-08-04T03:04:35.165Z,33.30
2018-08-04T03:07:03.049Z,34.13
2018-08-04T03:12:38.998Z,40.35
2018-08-04T03:15:07.057Z,38.02
2018-08-04T03:17:34.945Z,39.50
2018-08-04T03:20:02.812Z,38.90
2018-08-04T03:22:51.121Z,43.98
2018-08-04T03:25:18.995Z,37.78
2018-08-04T03:27:46.855Z,39.95
2018-08-04T03:30:15.679Z,36.35
2018-08-04T03:32:44.745Z,39.05
2018-08-04T03:35:12.643Z,39.85
2018-08-04T03:37:40.455Z,46.23
2018-08-04T03:40:08.323Z,43.87
2018-08-04T03:42:36.112Z,42.55
2018-08-04T03:45:03.944Z,41.68
2018-08-04T03:47:31.750Z,41.65
2018-08-04T03:49:59.566Z,42.65
2018-08-04T03:52:27.493Z,41.33
2018-08-04T03:54:55.307Z,39.50
2018-08-04T03:57:23.205Z,44.83
2018-08-04T03:59:50.996Z,38.63
2018-08-04T04:02:19.926Z,45.30
2018-08-04T04:07:35.812Z,71.45
2018-08-04T04:10:03.892Z,50.90
2018-08-04T04:12:31.796Z,49.42
2018-08-04T04:14:59.680Z,68.95
2018-08-04T04:17:32.155Z,78.33
2018-08-04T04:20:00.016Z,87.78
2018-08-04T04:22:27.872Z,84.77
2018-08-04T04:24:55.724Z,72.58
2018-08-04T04:27:23.593Z,66.75
2018-08-04T04:29:51.481Z,71.33
2018-08-04T04:32:19.386Z,61.63
2018-08-04T04:34:47.244Z,57.27
2018-08-04T04:37:15.169Z,62.78
2018-08-04T04:39:43.155Z,68.65
2018-08-04T04:42:11.124Z,90.35
2018-08-04T04:44:39.094Z,79.80
2018-08-04T04:47:06.987Z,95.85
2018-08-04T04:49:34.964Z,80.20
2018-08-04T04:52:02.836Z,65.50
2018-08-04T04:54:30.884Z,52.50
2018-08-04T04:56:58.746Z,47.35
2018-08-04T04:59:26.699Z,41.37
2018-08-04T05:01:54.638Z,34.63
2018-08-04T05:04:22.533Z,32.03
2018-08-04T05:06:50.326Z,29.52
2018-08-04T05:09:18.135Z,26.62
2018-08-04T05:11:45.901Z,25.27
2018-08-04T05:14:48.167Z,23.40
2018-08-04T05:17:15.969Z,22.50
2018-08-04T05:19:45.698Z,21.10
2018-08-04T05:25:34.873Z,17.80
2018-08-04T05:28:02.863Z,17.00
2018-08-04T05:30:30.916Z,16.50
2018-08-04T05:32:58.758Z,14.93
2018-08-04T05:35:26.628Z,14.47
2018-08-04T05:37:54.600Z,14.47
2018-08-04T05:40:22.452Z,13.55
2018-08-04T05:42:50.338Z,12.80
2018-08-04T05:45:18.230Z,11.93
2018-08-04T05:47:46.079Z,12.65
2018-08-04T05:50:13.935Z,11.45
2018-08-04T05:52:41.860Z,11.10
2018-08-04T05:55:09.693Z,50.23
2018-08-04T05:57:37.592Z,28.02
2018-08-04T06:00:06.922Z,10.70
2018-08-04T06:02:34.856Z,10.48
2018-08-04T06:05:02.788Z,10.48
2018-08-04T06:07:30.642Z,9.63
2018-08-04T06:09:58.481Z,9.13
2018-08-04T06:12:26.285Z,9.28
2018-08-04T06:14:54.143Z,9.03
2018-08-04T06:17:21.952Z,8.35
2018-08-04T06:19:49.897Z,8.13
2018-08-04T06:22:17.713Z,7.42
2018-08-04T06:27:47.700Z,6.67
2018-08-04T06:30:15.471Z,6.10
2018-08-04T06:32:43.304Z,5.53
2018-08-04T06:35:12.079Z,5.75
2018-08-04T06:37:40.044Z,4.60
2018-08-04T06:40:08.122Z,4.60
2018-08-04T06:42:36.052Z,4.20
2018-08-04T06:45:04.358Z,4.00
2018-08-04T06:47:32.236Z,5.58
2018-08-04T06:50:00.094Z,4.60
2018-08-04T06:52:28.006Z,4.22
2018-08-04T06:54:55.939Z,4.60
2018-08-04T06:57:23.863Z,5.15
2018-08-04T06:59:51.723Z,4.22
2018-08-04T07:02:19.695Z,4.75
2018-08-04T07:04:47.627Z,4.67
2018-08-04T07:07:15.501Z,4.30
2018-08-04T07:09:43.381Z,4.47
2018-08-04T07:12:11.417Z,3.72
2018-08-04T07:14:39.302Z,4.35
2018-08-04T07:17:07.282Z,3.15
2018-08-04T07:19:35.190Z,3.72
2018-08-04T07:22:03.139Z,3.50
2018-08-04T07:24:31.062Z,2.83
2018-08-04T07:26:58.962Z,2.52
2018-08-04T07:29:26.844Z,2.62
2018-08-04T07:31:54.725Z,2.85
2018-08-04T07:34:22.846Z,2.33
2018-08-04T07:40:01.193Z,2.72
2018-08-04T07:42:30.853Z,1.72
2018-08-04T07:44:59.265Z,2.47
2018-08-04T07:47:27.747Z,1.67
2018-08-04T07:49:56.204Z,1.60
2018-08-04T07:52:24.582Z,2.85
2018-08-04T07:54:53.066Z,2.70
2018-08-04T07:57:21.467Z,2.58
2018-08-04T07:59:49.826Z,2.58
2018-08-04T08:02:18.210Z,2.55
2018-08-04T08:04:46.572Z,2.50
2018-08-04T08:07:14.930Z,2.60
2018-08-04T08:09:43.347Z,3.17
2018-08-04T08:12:12.876Z,3.12
2018-08-04T08:14:41.229Z,1.98
2018-08-04T08:17:09.718Z,2.22
2018-08-04T08:19:38.182Z,2.05
2018-08-04T08:22:06.681Z,1.90
2018-08-04T08:24:35.044Z,1.55
2018-08-04T08:27:03.660Z,1.47
2018-08-04T08:29:32.057Z,1.77
2018-08-04T08:32:00.475Z,1.85
2018-08-04T08:34:28.946Z,1.80
2018-08-04T08:36:57.380Z,1.65
2018-08-04T08:39:25.818Z,1.30
2018-08-04T08:41:54.651Z,1.40
2018-08-04T08:44:24.807Z,0.85
2018-08-04T08:46:53.545Z,0.72
2018-08-04T08:49:22.320Z,1.15
2018-08-04T08:51:51.003Z,1.05
2018-08-04T08:54:20.920Z,1.20
2018-08-04T08:56:49.912Z,1.30
2018-08-04T08:59:18.730Z,1.10
2018-08-04T09:01:47.600Z,1.30
2018-08-04T09:04:16.224Z,1.22
2018-08-04T09:06:45.837Z,1.55
2018-08-04T09:09:14.589Z,1.30
2018-08-04T09:11:43.534Z,1.40
2018-08-04T09:14:12.007Z,1.50
2018-08-04T09:16:40.787Z,1.75
2018-08-04T09:19:09.639Z,1.27
2018-08-04T09:21:38.333Z,1.10
2018-08-04T09:24:06.748Z,0.80
2018-08-04T09:26:35.187Z,1.37
2018-08-04T09:29:03.676Z,0.95
2018-08-04T09:31:32.231Z,1.02
2018-08-04T09:34:00.811Z,1.05
2018-08-04T09:36:29.410Z,0.80
2018-08-04T09:38:57.956Z,1.62
2018-08-04T09:41:26.333Z,0.85
2018-08-04T09:43:54.923Z,0.95
2018-08-04T09:46:23.487Z,1.32
2018-08-04T09:48:52.202Z,1.22
2018-08-04T09:51:20.686Z,0.80
2018-08-04T09:53:56.852Z,1.22
2018-08-04T09:59:47.744Z,1.20
2018-08-04T10:02:22.154Z,1.02
2018-08-04T10:04:50.042Z,0.90
2018-08-04T10:10:10.591Z,0.78
2018-08-04T10:12:38.415Z,0.75
2018-08-04T10:15:07.467Z,0.80
2018-08-04T10:17:35.301Z,0.98
2018-08-04T10:20:03.235Z,0.90
2018-08-04T10:22:34.324Z,0.70
2018-08-04T10:25:16.374Z,1.00
2018-08-04T10:27:46.734Z,1.52
2018-08-04T10:30:17.779Z,0.80
2018-08-04T10:32:47.185Z,1.07
2018-08-04T10:35:19.264Z,0.78
2018-08-04T10:37:49.684Z,4.15
2018-08-04T10:40:20.288Z,0.70
2018-08-04T10:42:49.446Z,13.83
2018-08-04T10:45:20.566Z,2.25
2018-08-04T10:47:51.711Z,1.10
2018-08-04T10:50:24.441Z,0.95
2018-08-04T10:52:57.065Z,1.27
2018-08-04T10:55:27.176Z,0.70
2018-08-04T10:57:55.516Z,1.25
2018-08-04T11:00:23.789Z,0.85
2018-08-04T11:02:52.684Z,0.95
2018-08-04T11:05:21.141Z,0.70
2018-08-04T11:07:52.044Z,0.80
2018-08-04T11:10:24.978Z,1.02
2018-08-04T11:12:54.295Z,1.20
2018-08-04T11:15:23.428Z,1.10
2018-08-04T11:17:54.520Z,0.93
2018-08-04T11:20:22.902Z,0.95
2018-08-04T11:28:58.145Z,1.10
2018-08-04T11:31:25.947Z,1.17
2018-08-04T11:33:53.748Z,1.20
2018-08-04T11:36:21.520Z,1.20
2018-08-04T11:38:49.338Z,1.40
2018-08-04T11:41:18.197Z,1.00
2018-08-04T11:43:45.992Z,1.37
2018-08-04T11:46:13.781Z,1.95
2018-08-04T11:48:41.591Z,1.60
2018-08-04T11:51:09.329Z,1.40
2018-08-04T11:53:37.211Z,1.90
2018-08-04T11:56:05.231Z,1.37
2018-08-04T11:58:33.008Z,1.75
2018-08-04T12:03:48.197Z,1.57
2018-08-04T12:06:16.025Z,2.20
2018-08-04T12:08:43.851Z,1.47
2018-08-04T12:11:11.743Z,1.20
2018-08-04T12:13:39.680Z,1.17
2018-08-04T12:16:07.485Z,1.27
2018-08-04T12:18:35.382Z,1.15
2018-08-04T12:21:03.272Z,0.80
2018-08-04T12:23:32.164Z,0.78
2018-08-04T12:25:59.919Z,1.40
2018-08-04T12:28:28.935Z,0.90
2018-08-04T12:30:56.763Z,1.02
2018-08-04T12:33:25.636Z,1.25
2018-08-04T12:35:53.840Z,1.10
2018-08-04T12:38:21.633Z,1.22
2018-08-04T12:40:50.481Z,0.80
2018-08-04T12:43:18.297Z,0.85
2018-08-04T12:45:46.076Z,0.70
2018-08-04T12:48:54.828Z,0.70
2018-08-04T12:51:22.797Z,0.80
2018-08-04T12:53:50.623Z,0.62
2018-08-04T12:56:18.523Z,0.70
2018-08-04T12:58:46.347Z,0.82
2018-08-04T13:01:14.252Z,0.68
2018-08-04T13:03:42.007Z,0.93
2018-08-04T13:06:09.989Z,0.57
2018-08-04T13:08:37.790Z,0.78
2018-08-04T13:11:05.858Z,0.90
2018-08-04T13:13:33.622Z,1.00
2018-08-04T13:16:01.413Z,1.55
2018-08-04T13:18:29.207Z,0.70
2018-08-04T13:20:57.077Z,0.90
2018-08-04T13:23:24.928Z,0.60
2018-08-04T13:25:53.749Z,0.70
2018-08-04T13:28:21.529Z,0.60
2018-08-04T13:30:49.285Z,0.70
2018-08-04T13:33:17.086Z,1.60
2018-08-04T13:35:44.903Z,0.65
2018-08-04T13:38:12.691Z,0.47
2018-08-04T13:40:40.509Z,0.70
2018-08-04T13:43:08.310Z,0.80
2018-08-04T13:45:36.176Z,0.60
2018-08-04T13:48:05.000Z,0.53
2018-08-04T13:50:32.862Z,0.70
2018-08-04T13:53:00.641Z,0.60
2018-08-04T13:58:09.779Z,0.60
2018-08-04T14:00:37.616Z,0.53
2018-08-04T14:03:05.487Z,0.60
2018-08-04T14:05:33.286Z,1.02
2018-08-04T14:08:01.041Z,0.60
2018-08-04T14:10:28.900Z,0.80
2018-08-04T14:12:56.649Z,0.80
2018-08-04T14:15:24.563Z,0.88
2018-08-04T14:17:52.383Z,0.57
2018-08-04T14:20:20.378Z,0.68
2018-08-04T14:22:48.321Z,0.70
2018-08-04T14:25:16.113Z,1.40
2018-08-04T14:27:43.943Z,0.60
2018-08-04T14:30:13.052Z,0.70
2018-08-04T14:36:25.939Z,0.88
2018-08-04T14:38:54.791Z,0.72
2018-08-04T14:41:23.127Z,0.65
2018-08-04T14:43:51.014Z,0.93
2018-08-04T14:46:18.984Z,1.80
2018-08-04T14:48:46.848Z,1.12
2018-08-04T14:51:14.779Z,1.05
2018-08-04T14:53:42.668Z,0.70
2018-08-04T14:56:10.658Z,0.95
2018-08-04T14:58:38.526Z,0.68
2018-08-04T15:01:07.211Z,1.15
2018-08-04T15:03:36.096Z,1.10
2018-08-04T15:06:05.102Z,1.70
2018-08-04T15:08:33.532Z,1.67
2018-08-04T15:11:02.491Z,2.83
2018-08-04T15:13:30.498Z,3.40
2018-08-04T15:15:58.509Z,2.62
2018-08-04T15:18:26.411Z,2.87
2018-08-04T15:20:54.476Z,7.75
2018-08-04T15:23:22.376Z,2.58
2018-08-04T15:25:51.440Z,4.22
2018-08-04T15:28:19.333Z,4.25
2018-08-04T15:30:47.317Z,6.35
2018-08-04T15:33:15.273Z,6.55
2018-08-04T15:35:43.114Z,6.58
2018-08-04T15:38:10.962Z,6.90
2018-08-04T15:40:38.904Z,6.75
2018-08-04T15:45:42.902Z,6.47
2018-08-04T15:48:10.826Z,8.78
2018-08-04T15:50:38.791Z,6.37
2018-08-04T15:53:06.574Z,5.17
2018-08-04T15:55:34.470Z,5.53
2018-08-04T15:58:03.307Z,5.05
2018-08-04T16:00:31.071Z,5.53
2018-08-04T16:02:58.821Z,5.47
2018-08-04T16:05:26.602Z,5.22
2018-08-04T16:07:54.432Z,5.20
2018-08-04T16:10:35.608Z,4.53
2018-08-04T16:16:59.565Z,5.33
2018-08-04T16:19:27.404Z,5.70
2018-08-04T16:21:55.190Z,5.37
2018-08-04T16:24:57.794Z,5.47
2018-08-04T16:27:25.651Z,5.95
2018-08-04T16:29:53.511Z,6.47
2018-08-04T16:32:21.308Z,5.78
2018-08-04T16:34:49.254Z,5.08
2018-08-04T16:37:17.030Z,4.60
2018-08-04T16:40:29.713Z,4.33
2018-08-04T16:42:57.693Z,4.47
2018-08-04T16:45:25.590Z,3.80
2018-08-04T16:47:53.464Z,3.58
2018-08-04T16:50:21.357Z,2.85
2018-08-04T16:52:49.337Z,2.27
2018-08-04T16:55:17.205Z,2.25
2018-08-04T16:57:45.143Z,1.60
2018-08-04T17:00:12.966Z,1.90
2018-08-04T17:02:41.885Z,2.17
2018-08-04T17:05:09.817Z,1.85
2018-08-04T17:07:37.710Z,1.07
2018-08-04T17:10:05.764Z,1.37
2018-08-04T17:12:33.641Z,1.00
2018-08-04T17:15:01.491Z,1.27
2018-08-04T17:17:29.405Z,1.32
2018-08-04T17:19:57.271Z,1.57
2018-08-04T17:22:25.154Z,0.75
2018-08-04T17:24:53.039Z,1.15
2018-08-04T17:27:20.942Z,1.10
2018-08-04T17:29:48.800Z,1.20
2018-08-04T17:32:16.623Z,1.42
2018-08-04T17:34:44.469Z,1.45
2018-08-04T17:37:12.532Z,1.07
2018-08-04T17:39:40.385Z,1.02
2018-08-04T17:42:08.229Z,0.93
2018-08-04T17:44:36.074Z,1.12
2018-08-04T17:47:04.031Z,0.80
2018-08-04T17:49:31.833Z,0.65
2018-08-04T17:51:59.619Z,0.70
2018-08-04T17:54:31.052Z,1.07
2018-08-04T17:56:58.886Z,1.15
2018-08-04T17:59:26.684Z,0.68
2018-08-04T18:01:54.477Z,0.85
2018-08-04T18:04:27.249Z,1.12
2018-08-04T18:06:56.215Z,0.60
2018-08-04T18:09:32.402Z,0.80
2018-08-04T18:12:00.281Z,1.15
2018-08-04T18:14:28.313Z,1.17
2018-08-04T18:16:56.223Z,0.60
2018-08-04T18:19:24.170Z,1.00
2018-08-04T18:21:52.112Z,1.42
2018-08-04T18:24:20.023Z,1.45
2018-08-04T18:26:47.885Z,1.27
2018-08-04T18:29:15.856Z,0.78
2018-08-04T18:31:43.728Z,1.00
2018-08-04T18:34:11.688Z,0.90
2018-08-04T18:36:39.581Z,1.22
2018-08-04T18:39:08.319Z,0.82
2018-08-04T18:41:36.256Z,0.88
2018-08-04T18:44:04.186Z,0.98
2018-08-04T18:46:32.129Z,1.00
2018-08-04T18:49:00.122Z,0.90
2018-08-04T18:51:28.051Z,0.90
2018-08-04T18:53:56.042Z,1.22
2018-08-04T18:56:23.972Z,0.62
2018-08-04T18:58:51.941Z,0.60
2018-08-04T19:01:19.877Z,1.20
2018-08-04T19:03:47.867Z,0.80
2018-08-04T19:06:15.723Z,1.32
2018-08-04T19:09:06.133Z,1.15
2018-08-04T19:11:33.947Z,1.17
2018-08-04T19:14:01.747Z,1.05
2018-08-04T19:16:29.566Z,1.10
2018-08-04T19:18:58.616Z,0.88
2018-08-04T19:21:26.511Z,1.60
2018-08-04T19:23:54.358Z,1.20
2018-08-04T19:26:22.197Z,1.20
2018-08-04T19:28:53.254Z,1.10
2018-08-04T19:31:55.960Z,1.42
2018-08-04T19:34:23.787Z,1.72
2018-08-04T19:36:52.571Z,1.90
2018-08-04T19:39:20.376Z,1.30
2018-08-04T19:42:05.141Z,1.77
2018-08-04T19:44:33.927Z,2.00
2018-08-04T19:47:01.758Z,1.62
2018-08-04T19:49:29.508Z,1.47
2018-08-04T19:51:57.262Z,1.42
2018-08-04T19:54:25.021Z,1.45
2018-08-04T20:00:07.438Z,2.05
2018-08-04T20:02:35.639Z,1.52
2018-08-04T20:05:03.494Z,2.30
2018-08-04T20:07:31.459Z,1.70
2018-08-04T20:09:59.226Z,1.72
2018-08-04T20:12:27.022Z,2.45
2018-08-04T20:14:54.772Z,2.10
2018-08-04T20:17:22.586Z,2.22
2018-08-04T20:19:50.353Z,3.00
2018-08-04T20:22:22.843Z,2.45
2018-08-04T20:24:50.693Z,2.72
2018-08-04T20:27:18.457Z,2.35
2018-08-04T20:30:12.958Z,2.77
2018-08-04T20:32:43.691Z,2.30
2018-08-04T20:35:11.557Z,2.33
2018-08-04T20:37:40.427Z,2.85
2018-08-04T20:40:08.208Z,2.70
2018-08-04T20:42:35.985Z,2.17
2018-08-04T20:45:04.254Z,2.67
2018-08-04T20:50:30.107Z,3.08
2018-08-04T20:52:57.955Z,2.72
2018-08-04T20:55:25.697Z,2.65
2018-08-04T20:57:53.456Z,3.20
2018-08-04T21:00:21.255Z,2.92
2018-08-04T21:02:49.019Z,4.05
2018-08-04T21:05:17.249Z,2.75
2018-08-04T21:07:45.076Z,3.27
2018-08-04T21:10:12.865Z,3.85
2018-08-04T21:13:21.985Z,3.47
2018-08-04T21:15:49.986Z,4.00
2018-08-04T21:18:17.886Z,3.90
2018-08-04T21:20:45.765Z,4.53
2018-08-04T21:23:13.706Z,4.03
2018-08-04T21:25:41.607Z,4.85
2018-08-04T21:28:09.508Z,5.17
2018-08-04T21:30:37.498Z,4.70
2018-08-04T21:33:05.416Z,3.60
2018-08-04T21:35:33.389Z,4.10
2018-08-04T21:38:01.290Z,4.33
2018-08-04T21:40:30.358Z,4.53
2018-08-04T21:42:58.222Z,4.12
2018-08-04T21:45:26.211Z,3.00
2018-08-04T21:47:54.093Z,3.47
2018-08-04T21:50:22.050Z,3.92
2018-08-04T21:52:49.949Z,2.95
2018-08-04T21:55:17.909Z,3.42
2018-08-04T21:57:45.802Z,3.27
2018-08-04T22:00:13.756Z,3.33
2018-08-04T22:02:52.970Z,3.25
2018-08-04T22:05:20.918Z,3.02
2018-08-04T22:08:00.373Z,2.45
2018-08-04T22:10:28.384Z,2.58
2018-08-04T22:12:56.691Z,3.02
2018-08-04T22:15:24.580Z,3.62
2018-08-04T22:17:52.462Z,3.72
2018-08-04T22:20:49.469Z,2.37
2018-08-04T22:23:17.283Z,3.02
2018-08-04T22:25:45.029Z,2.90
2018-08-04T22:28:12.786Z,2.60
2018-08-04T22:33:45.689Z,2.98
2018-08-04T22:36:13.461Z,2.85
2018-08-04T22:38:41.286Z,2.55
2018-08-04T22:41:09.069Z,2.58
2018-08-04T22:43:36.900Z,2.75
2018-08-04T22:46:08.888Z,2.98
2018-08-04T22:48:36.816Z,2.85
2018-08-04T22:51:04.588Z,2.90
2018-08-04T22:53:33.495Z,2.47
2018-08-04T22:56:01.639Z,2.00
2018-08-04T22:58:55.543Z,2.00
2018-08-04T23:01:23.373Z,2.02
2018-08-04T23:03:51.221Z,2.00
2018-08-04T23:06:18.970Z,1.60
2018-08-04T23:08:46.747Z,2.02
2018-08-04T23:11:14.503Z,2.05
2018-08-04T23:13:42.256Z,2.08
2018-08-04T23:16:10.096Z,2.30
2018-08-04T23:18:38.019Z,2.05
2018-08-04T23:21:41.461Z,2.27
2018-08-04T23:24:47.181Z,2.45
2018-08-04T23:27:14.999Z,2.80
2018-08-04T23:29:42.741Z,2.22
2018-08-04T23:32:11.546Z,2.52
2018-08-04T23:34:39.310Z,3.27
2018-08-04T23:37:08.056Z,3.42
2018-08-04T23:39:35.811Z,3.08
2018-08-04T23:42:03.720Z,3.40
2018-08-04T23:44:31.529Z,3.77
2018-08-04T23:46:59.302Z,3.00
2018-08-04T23:49:27.065Z,2.98
2018-08-04T23:51:54.846Z,3.25
2018-08-04T23:54:22.637Z,3.17
2018-08-04T23:56:50.431Z,3.37
2018-08-04T23:59:18.303Z,3.70
